sensor_id;sensor_type;location;lat;lon;timestamp;P1;durP1;ratioP1;P2;durP2;ratioP2
18100;SDS011;9177;49.156;8.142;2023-02-11T00:00:42;5.00;;;4.60;;
18100;SDS011;9177;49.156;8.142;2023-02-11T00:03:09;4.57;;;4.15;;
18100;SDS011;9177;49.156;8.142;2023-02-11T00:05:36;5.03;;;4.53;;
18100;SDS011;9177;49.156;8.142;2023-02-11T00:08:03;5.07;;;4.57;;
18100;SDS011;9177;49.156;8.142;2023-02-11T00:10:29;4.93;;;4.43;;
18100;SDS011;9177;49.156;8.142;2023-02-11T00:12:58;5.38;;;4.88;;
18100;SDS011;9177;49.156;8.142;2023-02-11T00:15:25;5.18;;;4.78;;
18100;SDS011;9177;49.156;8.142;2023-02-11T00:17:57;4.68;;;4.28;;
18100;SDS011;9177;49.156;8.142;2023-02-11T00:20:28;4.93;;;4.53;;
18100;SDS011;9177;49.156;8.142;2023-02-11T00:22:55;4.45;;;4.13;;
18100;SDS011;9177;49.156;8.142;2023-02-11T00:25:22;4.93;;;4.53;;
18100;SDS011;9177;49.156;8.142;2023-02-11T00:27:49;5.25;;;4.85;;
18100;SDS011;9177;49.156;8.142;2023-02-11T00:30:17;4.90;;;4.50;;
18100;SDS011;9177;49.156;8.142;2023-02-11T00:32:44;5.30;;;4.80;;
18100;SDS011;9177;49.156;8.142;2023-02-11T00:35:10;4.97;;;4.57;;
18100;SDS011;9177;49.156;8.142;2023-02-11T00:37:38;4.95;;;4.53;;
18100;SDS011;9177;49.156;8.142;2023-02-11T00:40:06;5.10;;;4.70;;
18100;SDS011;9177;49.156;8.142;2023-02-11T00:42:33;4.80;;;4.40;;
18100;SDS011;9177;49.156;8.142;2023-02-11T00:45:01;4.68;;;4.28;;
18100;SDS011;9177;49.156;8.142;2023-02-11T00:47:30;5.30;;;4.80;;
18100;SDS011;9177;49.156;8.142;2023-02-11T00:49:57;5.28;;;4.78;;
18100;SDS011;9177;49.156;8.142;2023-02-11T00:52:25;4.75;;;4.35;;
18100;SDS011;9177;49.156;8.142;2023-02-11T00:54:51;4.40;;;4.03;;
18100;SDS011;9177;49.156;8.142;2023-02-11T00:57:18;4.93;;;4.50;;
18100;SDS011;9177;49.156;8.142;2023-02-11T00:59:45;4.35;;;3.95;;
18100;SDS011;9177;49.156;8.142;2023-02-11T01:02:12;4.55;;;4.15;;
18100;SDS011;9177;49.156;8.142;2023-02-11T01:04:40;4.90;;;4.50;;
18100;SDS011;9177;49.156;8.142;2023-02-11T01:07:07;4.70;;;4.30;;
18100;SDS011;9177;49.156;8.142;2023-02-11T01:09:36;5.03;;;4.53;;
18100;SDS011;9177;49.156;8.142;2023-02-11T01:12:03;4.78;;;4.38;;
18100;SDS011;9177;49.156;8.142;2023-02-11T01:14:30;5.10;;;4.70;;
18100;SDS011;9177;49.156;8.142;2023-02-11T01:16:57;4.90;;;4.43;;
18100;SDS011;9177;49.156;8.142;2023-02-11T01:19:24;4.40;;;4.00;;
18100;SDS011;9177;49.156;8.142;2023-02-11T01:21:52;4.22;;;3.83;;
18100;SDS011;9177;49.156;8.142;2023-02-11T01:24:19;4.10;;;3.80;;
18100;SDS011;9177;49.156;8.142;2023-02-11T01:26:46;4.30;;;3.90;;
18100;SDS011;9177;49.156;8.142;2023-02-11T01:29:13;4.20;;;3.90;;
18100;SDS011;9177;49.156;8.142;2023-02-11T01:31:42;4.88;;;4.47;;
18100;SDS011;9177;49.156;8.142;2023-02-11T01:34:09;4.28;;;3.88;;
18100;SDS011;9177;49.156;8.142;2023-02-11T01:36:36;4.32;;;4.03;;
18100;SDS011;9177;49.156;8.142;2023-02-11T01:39:04;4.68;;;4.28;;
18100;SDS011;9177;49.156;8.142;2023-02-11T01:41:32;4.53;;;4.13;;
18100;SDS011;9177;49.156;8.142;2023-02-11T01:46:48;4.72;;;4.32;;
18100;SDS011;9177;49.156;8.142;2023-02-11T01:49:17;4.60;;;4.20;;
18100;SDS011;9177;49.156;8.142;2023-02-11T01:51:49;4.53;;;4.20;;
18100;SDS011;9177;49.156;8.142;2023-02-11T01:54:21;5.07;;;4.57;;
18100;SDS011;9177;49.156;8.142;2023-02-11T01:57:09;4.53;;;4.13;;
18100;SDS011;9177;49.156;8.142;2023-02-11T02:02:36;4.65;;;4.22;;
18100;SDS011;9177;49.156;8.142;2023-02-11T02:05:09;5.15;;;4.68;;
18100;SDS011;9177;49.156;8.142;2023-02-11T02:07:45;4.60;;;4.20;;
18100;SDS011;9177;49.156;8.142;2023-02-11T02:10:19;4.57;;;4.18;;
18100;SDS011;9177;49.156;8.142;2023-02-11T02:12:49;4.18;;;3.88;;
18100;SDS011;9177;49.156;8.142;2023-02-11T02:15:17;4.13;;;3.83;;
18100;SDS011;9177;49.156;8.142;2023-02-11T02:17:56;4.50;;;4.10;;
18100;SDS011;9177;49.156;8.142;2023-02-11T02:20:37;4.70;;;4.30;;
18100;SDS011;9177;49.156;8.142;2023-02-11T02:23:37;4.57;;;4.18;;
18100;SDS011;9177;49.156;8.142;2023-02-11T02:35:15;4.32;;;3.92;;
18100;SDS011;9177;49.156;8.142;2023-02-11T02:37:54;4.30;;;3.90;;
18100;SDS011;9177;49.156;8.142;2023-02-11T02:40:28;4.65;;;4.28;;
18100;SDS011;9177;49.156;8.142;2023-02-11T02:42:59;4.25;;;3.85;;
18100;SDS011;9177;49.156;8.142;2023-02-11T02:45:28;4.50;;;4.10;;
18100;SDS011;9177;49.156;8.142;2023-02-11T02:47:56;4.07;;;3.78;;
18100;SDS011;9177;49.156;8.142;2023-02-11T02:50:26;4.72;;;4.38;;
18100;SDS011;9177;49.156;8.142;2023-02-11T02:52:59;4.43;;;4.03;;
18100;SDS011;9177;49.156;8.142;2023-02-11T02:55:49;5.13;;;4.63;;
18100;SDS011;9177;49.156;8.142;2023-02-11T03:01:17;4.38;;;3.97;;
18100;SDS011;9177;49.156;8.142;2023-02-11T03:03:53;3.97;;;3.67;;
18100;SDS011;9177;49.156;8.142;2023-02-11T03:06:33;3.83;;;3.53;;
18100;SDS011;9177;49.156;8.142;2023-02-11T03:09:11;3.83;;;3.53;;
18100;SDS011;9177;49.156;8.142;2023-02-11T03:11:41;4.15;;;3.75;;
18100;SDS011;9177;49.156;8.142;2023-02-11T03:14:09;4.00;;;3.70;;
18100;SDS011;9177;49.156;8.142;2023-02-11T03:16:38;3.90;;;3.58;;
18100;SDS011;9177;49.156;8.142;2023-02-11T03:19:10;3.97;;;3.67;;
18100;SDS011;9177;49.156;8.142;2023-02-11T03:21:42;4.00;;;3.60;;
18100;SDS011;9177;49.156;8.142;2023-02-11T03:24:11;3.95;;;3.65;;
18100;SDS011;9177;49.156;8.142;2023-02-11T03:26:42;4.05;;;3.75;;
18100;SDS011;9177;49.156;8.142;2023-02-11T03:29:15;3.58;;;3.28;;
18100;SDS011;9177;49.156;8.142;2023-02-11T03:31:47;4.10;;;3.80;;
18100;SDS011;9177;49.156;8.142;2023-02-11T03:34:20;4.50;;;3.83;;
18100;SDS011;9177;49.156;8.142;2023-02-11T03:36:54;4.20;;;3.90;;
18100;SDS011;9177;49.156;8.142;2023-02-11T03:39:26;3.95;;;3.60;;
18100;SDS011;9177;49.156;8.142;2023-02-11T03:41:56;3.70;;;3.40;;
18100;SDS011;9177;49.156;8.142;2023-02-11T03:44:26;3.85;;;3.55;;
18100;SDS011;9177;49.156;8.142;2023-02-11T03:46:58;3.90;;;3.50;;
18100;SDS011;9177;49.156;8.142;2023-02-11T03:49:29;3.70;;;3.40;;
18100;SDS011;9177;49.156;8.142;2023-02-11T03:51:58;3.65;;;3.35;;
18100;SDS011;9177;49.156;8.142;2023-02-11T03:54:30;3.70;;;3.40;;
18100;SDS011;9177;49.156;8.142;2023-02-11T03:56:58;4.00;;;3.70;;
18100;SDS011;9177;49.156;8.142;2023-02-11T03:59:27;4.00;;;3.60;;
18100;SDS011;9177;49.156;8.142;2023-02-11T04:01:54;3.80;;;3.50;;
18100;SDS011;9177;49.156;8.142;2023-02-11T04:04:21;3.60;;;3.30;;
18100;SDS011;9177;49.156;8.142;2023-02-11T04:06:50;3.65;;;3.35;;
18100;SDS011;9177;49.156;8.142;2023-02-11T04:09:16;3.63;;;3.28;;
18100;SDS011;9177;49.156;8.142;2023-02-11T04:11:43;3.80;;;3.50;;
18100;SDS011;9177;49.156;8.142;2023-02-11T04:14:10;4.18;;;3.78;;
18100;SDS011;9177;49.156;8.142;2023-02-11T04:16:37;3.63;;;3.33;;
18100;SDS011;9177;49.156;8.142;2023-02-11T04:19:04;3.80;;;3.50;;
18100;SDS011;9177;49.156;8.142;2023-02-11T04:21:30;3.45;;;3.22;;
18100;SDS011;9177;49.156;8.142;2023-02-11T04:23:59;4.28;;;3.88;;
18100;SDS011;9177;49.156;8.142;2023-02-11T04:26:25;4.10;;;3.80;;
18100;SDS011;9177;49.156;8.142;2023-02-11T04:28:52;3.67;;;3.38;;
18100;SDS011;9177;49.156;8.142;2023-02-11T04:31:19;3.90;;;3.60;;
18100;SDS011;9177;49.156;8.142;2023-02-11T04:33:46;3.67;;;3.38;;
18100;SDS011;9177;49.156;8.142;2023-02-11T04:36:13;4.15;;;3.75;;
18100;SDS011;9177;49.156;8.142;2023-02-11T04:38:39;3.72;;;3.42;;
18100;SDS011;9177;49.156;8.142;2023-02-11T04:41:08;3.75;;;3.45;;
18100;SDS011;9177;49.156;8.142;2023-02-11T04:43:35;3.70;;;3.40;;
18100;SDS011;9177;49.156;8.142;2023-02-11T04:46:01;4.05;;;3.65;;
18100;SDS011;9177;49.156;8.142;2023-02-11T04:48:28;4.22;;;3.83;;
18100;SDS011;9177;49.156;8.142;2023-02-11T04:50:55;3.92;;;3.63;;
18100;SDS011;9177;49.156;8.142;2023-02-11T04:53:22;3.92;;;3.63;;
18100;SDS011;9177;49.156;8.142;2023-02-11T04:55:49;3.92;;;3.60;;
18100;SDS011;9177;49.156;8.142;2023-02-11T04:58:17;3.92;;;3.60;;
18100;SDS011;9177;49.156;8.142;2023-02-11T05:00:44;4.00;;;3.70;;
18100;SDS011;9177;49.156;8.142;2023-02-11T05:03:11;3.97;;;3.67;;
18100;SDS011;9177;49.156;8.142;2023-02-11T05:05:39;4.32;;;3.92;;
18100;SDS011;9177;49.156;8.142;2023-02-11T05:08:06;4.03;;;3.72;;
18100;SDS011;9177;49.156;8.142;2023-02-11T05:10:33;3.88;;;3.58;;
18100;SDS011;9177;49.156;8.142;2023-02-11T05:13:00;4.25;;;3.85;;
18100;SDS011;9177;49.156;8.142;2023-02-11T05:15:30;4.25;;;3.95;;
18100;SDS011;9177;49.156;8.142;2023-02-11T05:17:57;4.45;;;4.00;;
18100;SDS011;9177;49.156;8.142;2023-02-11T05:20:23;4.20;;;3.80;;
18100;SDS011;9177;49.156;8.142;2023-02-11T05:22:51;4.03;;;3.72;;
18100;SDS011;9177;49.156;8.142;2023-02-11T05:25:23;4.28;;;3.90;;
18100;SDS011;9177;49.156;8.142;2023-02-11T05:27:49;4.35;;;3.97;;
18100;SDS011;9177;49.156;8.142;2023-02-11T05:30:16;4.38;;;4.00;;
18100;SDS011;9177;49.156;8.142;2023-02-11T05:32:44;4.63;;;4.20;;
18100;SDS011;9177;49.156;8.142;2023-02-11T05:35:12;4.03;;;3.72;;
18100;SDS011;9177;49.156;8.142;2023-02-11T05:37:39;4.68;;;4.30;;
18100;SDS011;9177;49.156;8.142;2023-02-11T05:40:07;3.95;;;3.65;;
18100;SDS011;9177;49.156;8.142;2023-02-11T05:42:34;4.13;;;3.83;;
18100;SDS011;9177;49.156;8.142;2023-02-11T05:45:01;4.50;;;4.13;;
18100;SDS011;9177;49.156;8.142;2023-02-11T05:47:28;3.60;;;3.30;;
18100;SDS011;9177;49.156;8.142;2023-02-11T05:49:56;3.40;;;3.10;;
18100;SDS011;9177;49.156;8.142;2023-02-11T05:52:23;4.28;;;3.88;;
18100;SDS011;9177;49.156;8.142;2023-02-11T05:54:50;3.78;;;3.47;;
18100;SDS011;9177;49.156;8.142;2023-02-11T05:57:17;4.30;;;3.90;;
18100;SDS011;9177;49.156;8.142;2023-02-11T05:59:44;4.25;;;3.85;;
18100;SDS011;9177;49.156;8.142;2023-02-11T06:02:10;4.20;;;3.90;;
18100;SDS011;9177;49.156;8.142;2023-02-11T06:04:37;4.03;;;3.72;;
18100;SDS011;9177;49.156;8.142;2023-02-11T06:07:06;4.10;;;3.70;;
18100;SDS011;9177;49.156;8.142;2023-02-11T06:09:33;4.22;;;3.83;;
18100;SDS011;9177;49.156;8.142;2023-02-11T06:11:59;4.20;;;3.90;;
18100;SDS011;9177;49.156;8.142;2023-02-11T06:14:26;4.15;;;3.85;;
18100;SDS011;9177;49.156;8.142;2023-02-11T06:16:53;3.85;;;3.55;;
18100;SDS011;9177;49.156;8.142;2023-02-11T06:19:20;3.90;;;3.60;;
18100;SDS011;9177;49.156;8.142;2023-02-11T06:21:47;3.95;;;3.65;;
18100;SDS011;9177;49.156;8.142;2023-02-11T06:24:15;4.40;;;4.00;;
18100;SDS011;9177;49.156;8.142;2023-02-11T06:26:42;3.83;;;3.53;;
18100;SDS011;9177;49.156;8.142;2023-02-11T06:29:08;3.75;;;3.40;;
18100;SDS011;9177;49.156;8.142;2023-02-11T06:31:36;4.43;;;4.10;;
18100;SDS011;9177;49.156;8.142;2023-02-11T06:34:04;4.25;;;3.90;;
18100;SDS011;9177;49.156;8.142;2023-02-11T06:36:31;4.55;;;4.25;;
18100;SDS011;9177;49.156;8.142;2023-02-11T06:38:58;4.53;;;4.13;;
18100;SDS011;9177;49.156;8.142;2023-02-11T06:41:26;4.10;;;3.70;;
18100;SDS011;9177;49.156;8.142;2023-02-11T06:43:53;4.30;;;4.00;;
18100;SDS011;9177;49.156;8.142;2023-02-11T06:46:22;4.30;;;3.90;;
18100;SDS011;9177;49.156;8.142;2023-02-11T06:48:49;4.20;;;3.90;;
18100;SDS011;9177;49.156;8.142;2023-02-11T06:51:15;4.55;;;4.15;;
18100;SDS011;9177;49.156;8.142;2023-02-11T06:53:43;4.05;;;3.65;;
18100;SDS011;9177;49.156;8.142;2023-02-11T06:56:12;4.50;;;4.10;;
18100;SDS011;9177;49.156;8.142;2023-02-11T06:58:42;4.65;;;4.25;;
18100;SDS011;9177;49.156;8.142;2023-02-11T07:01:10;4.30;;;3.90;;
18100;SDS011;9177;49.156;8.142;2023-02-11T07:03:39;4.47;;;4.15;;
18100;SDS011;9177;49.156;8.142;2023-02-11T07:06:10;4.60;;;4.20;;
18100;SDS011;9177;49.156;8.142;2023-02-11T07:08:38;4.63;;;3.97;;
18100;SDS011;9177;49.156;8.142;2023-02-11T07:11:10;4.10;;;3.80;;
18100;SDS011;9177;49.156;8.142;2023-02-11T07:13:38;4.30;;;3.90;;
18100;SDS011;9177;49.156;8.142;2023-02-11T07:16:06;4.40;;;4.00;;
18100;SDS011;9177;49.156;8.142;2023-02-11T07:18:34;4.85;;;4.40;;
18100;SDS011;9177;49.156;8.142;2023-02-11T07:21:03;4.57;;;4.18;;
18100;SDS011;9177;49.156;8.142;2023-02-11T07:23:30;4.40;;;4.00;;
18100;SDS011;9177;49.156;8.142;2023-02-11T07:26:00;4.57;;;4.18;;
18100;SDS011;9177;49.156;8.142;2023-02-11T07:28:28;4.75;;;4.10;;
18100;SDS011;9177;49.156;8.142;2023-02-11T07:30:55;4.25;;;3.95;;
18100;SDS011;9177;49.156;8.142;2023-02-11T07:33:23;4.47;;;4.07;;
18100;SDS011;9177;49.156;8.142;2023-02-11T07:35:50;4.30;;;4.00;;
18100;SDS011;9177;49.156;8.142;2023-02-11T07:38:17;4.05;;;3.72;;
18100;SDS011;9177;49.156;8.142;2023-02-11T07:40:44;4.50;;;4.05;;
18100;SDS011;9177;49.156;8.142;2023-02-11T07:43:10;4.18;;;3.88;;
18100;SDS011;9177;49.156;8.142;2023-02-11T07:45:37;4.47;;;4.07;;
18100;SDS011;9177;49.156;8.142;2023-02-11T07:48:04;4.03;;;3.65;;
18100;SDS011;9177;49.156;8.142;2023-02-11T07:50:32;4.30;;;3.90;;
18100;SDS011;9177;49.156;8.142;2023-02-11T07:52:59;4.25;;;3.85;;
18100;SDS011;9177;49.156;8.142;2023-02-11T07:55:27;4.30;;;4.00;;
18100;SDS011;9177;49.156;8.142;2023-02-11T07:57:54;4.28;;;3.97;;
18100;SDS011;9177;49.156;8.142;2023-02-11T08:00:20;4.30;;;3.90;;
18100;SDS011;9177;49.156;8.142;2023-02-11T08:02:47;4.50;;;4.10;;
18100;SDS011;9177;49.156;8.142;2023-02-11T08:05:14;4.07;;;3.78;;
18100;SDS011;9177;49.156;8.142;2023-02-11T08:07:42;4.60;;;4.20;;
18100;SDS011;9177;49.156;8.142;2023-02-11T08:10:09;4.90;;;4.50;;
18100;SDS011;9177;49.156;8.142;2023-02-11T08:12:36;4.30;;;4.00;;
18100;SDS011;9177;49.156;8.142;2023-02-11T08:15:03;4.68;;;4.28;;
18100;SDS011;9177;49.156;8.142;2023-02-11T08:17:30;4.20;;;3.90;;
18100;SDS011;9177;49.156;8.142;2023-02-11T08:19:57;3.95;;;3.65;;
18100;SDS011;9177;49.156;8.142;2023-02-11T08:22:24;4.30;;;4.00;;
18100;SDS011;9177;49.156;8.142;2023-02-11T08:24:52;4.50;;;4.10;;
18100;SDS011;9177;49.156;8.142;2023-02-11T08:27:19;4.72;;;4.13;;
18100;SDS011;9177;49.156;8.142;2023-02-11T08:29:46;3.97;;;3.67;;
18100;SDS011;9177;49.156;8.142;2023-02-11T08:32:13;4.57;;;4.18;;
18100;SDS011;9177;49.156;8.142;2023-02-11T08:34:40;4.50;;;4.10;;
18100;SDS011;9177;49.156;8.142;2023-02-11T08:37:09;4.53;;;4.13;;
18100;SDS011;9177;49.156;8.142;2023-02-11T08:39:36;4.05;;;3.75;;
18100;SDS011;9177;49.156;8.142;2023-02-11T08:42:04;4.32;;;3.92;;
18100;SDS011;9177;49.156;8.142;2023-02-11T08:44:31;4.45;;;4.05;;
18100;SDS011;9177;49.156;8.142;2023-02-11T08:46:58;5.00;;;4.60;;
18100;SDS011;9177;49.156;8.142;2023-02-11T08:49:24;4.65;;;4.25;;
18100;SDS011;9177;49.156;8.142;2023-02-11T08:51:51;4.72;;;4.32;;
18100;SDS011;9177;49.156;8.142;2023-02-11T08:54:20;5.07;;;4.10;;
18100;SDS011;9177;49.156;8.142;2023-02-11T08:56:49;4.18;;;3.88;;
18100;SDS011;9177;49.156;8.142;2023-02-11T08:59:18;4.57;;;3.97;;
18100;SDS011;9177;49.156;8.142;2023-02-11T09:01:45;4.75;;;4.35;;
18100;SDS011;9177;49.156;8.142;2023-02-11T09:04:12;4.40;;;4.00;;
18100;SDS011;9177;49.156;8.142;2023-02-11T09:06:40;4.70;;;4.28;;
18100;SDS011;9177;49.156;8.142;2023-02-11T09:09:08;4.47;;;4.03;;
18100;SDS011;9177;49.156;8.142;2023-02-11T09:11:37;4.55;;;3.70;;
18100;SDS011;9177;49.156;8.142;2023-02-11T09:14:06;4.38;;;3.65;;
18100;SDS011;9177;49.156;8.142;2023-02-11T09:16:35;4.82;;;3.90;;
18100;SDS011;9177;49.156;8.142;2023-02-11T09:19:02;5.07;;;4.38;;
18100;SDS011;9177;49.156;8.142;2023-02-11T09:21:30;4.18;;;3.65;;
18100;SDS011;9177;49.156;8.142;2023-02-11T09:23:57;5.28;;;3.80;;
18100;SDS011;9177;49.156;8.142;2023-02-11T09:26:24;3.90;;;3.50;;
18100;SDS011;9177;49.156;8.142;2023-02-11T09:28:53;5.57;;;4.32;;
18100;SDS011;9177;49.156;8.142;2023-02-11T09:31:22;7.68;;;4.13;;
18100;SDS011;9177;49.156;8.142;2023-02-11T09:33:53;6.32;;;4.13;;
18100;SDS011;9177;49.156;8.142;2023-02-11T09:36:22;4.80;;;3.63;;
18100;SDS011;9177;49.156;8.142;2023-02-11T09:38:51;6.53;;;3.95;;
18100;SDS011;9177;49.156;8.142;2023-02-11T09:41:29;3.88;;;3.58;;
18100;SDS011;9177;49.156;8.142;2023-02-11T09:44:03;4.43;;;4.03;;
18100;SDS011;9177;49.156;8.142;2023-02-11T09:46:33;4.47;;;3.20;;
18100;SDS011;9177;49.156;8.142;2023-02-11T09:49:04;4.57;;;3.95;;
18100;SDS011;9177;49.156;8.142;2023-02-11T09:51:36;4.55;;;3.47;;
18100;SDS011;9177;49.156;8.142;2023-02-11T09:54:10;3.55;;;3.20;;
18100;SDS011;9177;49.156;8.142;2023-02-11T09:56:42;5.72;;;3.70;;
18100;SDS011;9177;49.156;8.142;2023-02-11T09:59:09;3.85;;;3.50;;
18100;SDS011;9177;49.156;8.142;2023-02-11T10:01:40;4.80;;;3.38;;
18100;SDS011;9177;49.156;8.142;2023-02-11T10:04:15;5.82;;;3.53;;
18100;SDS011;9177;49.156;8.142;2023-02-11T10:06:49;8.75;;;4.88;;
18100;SDS011;9177;49.156;8.142;2023-02-11T10:09:27;5.63;;;4.63;;
18100;SDS011;9177;49.156;8.142;2023-02-11T10:12:12;6.18;;;4.38;;
18100;SDS011;9177;49.156;8.142;2023-02-11T10:14:50;4.63;;;4.22;;
18100;SDS011;9177;49.156;8.142;2023-02-11T10:17:28;4.18;;;3.75;;
18100;SDS011;9177;49.156;8.142;2023-02-11T10:20:13;9.18;;;4.07;;
18100;SDS011;9177;49.156;8.142;2023-02-11T10:22:50;7.47;;;4.03;;
18100;SDS011;9177;49.156;8.142;2023-02-11T10:25:20;16.60;;;4.53;;
18100;SDS011;9177;49.156;8.142;2023-02-11T10:27:50;10.40;;;3.97;;
18100;SDS011;9177;49.156;8.142;2023-02-11T10:30:22;10.35;;;4.85;;
18100;SDS011;9177;49.156;8.142;2023-02-11T10:32:56;16.60;;;4.13;;
18100;SDS011;9177;49.156;8.142;2023-02-11T10:35:29;12.63;;;4.60;;
18100;SDS011;9177;49.156;8.142;2023-02-11T10:37:57;9.88;;;4.15;;
18100;SDS011;9177;49.156;8.142;2023-02-11T10:40:26;11.32;;;4.07;;
18100;SDS011;9177;49.156;8.142;2023-02-11T10:42:56;7.30;;;4.22;;
18100;SDS011;9177;49.156;8.142;2023-02-11T10:45:27;10.10;;;4.07;;
18100;SDS011;9177;49.156;8.142;2023-02-11T10:47:58;7.90;;;4.30;;
18100;SDS011;9177;49.156;8.142;2023-02-11T10:50:26;10.70;;;4.03;;
18100;SDS011;9177;49.156;8.142;2023-02-11T10:53:09;11.43;;;4.20;;
18100;SDS011;9177;49.156;8.142;2023-02-11T10:55:38;8.77;;;4.40;;
18100;SDS011;9177;49.156;8.142;2023-02-11T10:58:20;10.02;;;4.20;;
18100;SDS011;9177;49.156;8.142;2023-02-11T11:00:50;8.43;;;3.95;;
18100;SDS011;9177;49.156;8.142;2023-02-11T11:03:19;8.23;;;3.78;;
18100;SDS011;9177;49.156;8.142;2023-02-11T11:05:49;7.70;;;3.63;;
18100;SDS011;9177;49.156;8.142;2023-02-11T11:08:19;17.75;;;4.13;;
18100;SDS011;9177;49.156;8.142;2023-02-11T11:10:47;7.47;;;3.33;;
18100;SDS011;9177;49.156;8.142;2023-02-11T11:13:29;9.85;;;3.45;;
18100;SDS011;9177;49.156;8.142;2023-02-11T11:18:50;10.07;;;4.00;;
18100;SDS011;9177;49.156;8.142;2023-02-11T11:21:19;9.35;;;3.58;;
18100;SDS011;9177;49.156;8.142;2023-02-11T11:23:54;7.45;;;3.40;;
18100;SDS011;9177;49.156;8.142;2023-02-11T11:26:26;8.25;;;3.67;;
18100;SDS011;9177;49.156;8.142;2023-02-11T11:29:07;7.25;;;2.95;;
18100;SDS011;9177;49.156;8.142;2023-02-11T11:31:44;6.85;;;3.17;;
18100;SDS011;9177;49.156;8.142;2023-02-11T11:34:19;8.00;;;3.13;;
18100;SDS011;9177;49.156;8.142;2023-02-11T11:36:48;5.53;;;3.55;;
18100;SDS011;9177;49.156;8.142;2023-02-11T11:39:21;8.20;;;3.38;;
18100;SDS011;9177;49.156;8.142;2023-02-11T11:41:52;5.97;;;2.88;;
18100;SDS011;9177;49.156;8.142;2023-02-11T11:44:22;6.07;;;3.25;;
18100;SDS011;9177;49.156;8.142;2023-02-11T11:47:11;4.63;;;3.13;;
18100;SDS011;9177;49.156;8.142;2023-02-11T11:49:52;7.55;;;3.05;;
18100;SDS011;9177;49.156;8.142;2023-02-11T11:52:32;7.20;;;2.95;;
18100;SDS011;9177;49.156;8.142;2023-02-11T11:55:08;7.38;;;3.50;;
18100;SDS011;9177;49.156;8.142;2023-02-11T11:57:41;6.28;;;3.08;;
18100;SDS011;9177;49.156;8.142;2023-02-11T12:00:12;5.95;;;3.10;;
18100;SDS011;9177;49.156;8.142;2023-02-11T12:05:51;5.88;;;3.13;;
18100;SDS011;9177;49.156;8.142;2023-02-11T12:08:30;5.70;;;3.42;;
18100;SDS011;9177;49.156;8.142;2023-02-11T12:11:07;9.38;;;3.80;;
18100;SDS011;9177;49.156;8.142;2023-02-11T12:13:46;7.68;;;4.28;;
18100;SDS011;9177;49.156;8.142;2023-02-11T12:16:26;7.07;;;3.72;;
18100;SDS011;9177;49.156;8.142;2023-02-11T12:19:09;8.30;;;3.60;;
18100;SDS011;9177;49.156;8.142;2023-02-11T12:22:06;6.47;;;3.92;;
18100;SDS011;9177;49.156;8.142;2023-02-11T12:24:41;8.13;;;3.92;;
18100;SDS011;9177;49.156;8.142;2023-02-11T12:27:21;7.05;;;3.70;;
18100;SDS011;9177;49.156;8.142;2023-02-11T12:30:01;5.22;;;3.33;;
18100;SDS011;9177;49.156;8.142;2023-02-11T12:32:35;5.63;;;3.45;;
18100;SDS011;9177;49.156;8.142;2023-02-11T12:38:09;5.03;;;3.97;;
18100;SDS011;9177;49.156;8.142;2023-02-11T12:40:59;3.92;;;3.38;;
18100;SDS011;9177;49.156;8.142;2023-02-11T12:43:40;8.07;;;3.35;;
18100;SDS011;9177;49.156;8.142;2023-02-11T12:46:29;6.22;;;3.38;;
18100;SDS011;9177;49.156;8.142;2023-02-11T12:49:05;4.50;;;3.13;;
18100;SDS011;9177;49.156;8.142;2023-02-11T12:51:49;4.78;;;3.10;;
18100;SDS011;9177;49.156;8.142;2023-02-11T12:54:26;3.47;;;3.03;;
18100;SDS011;9177;49.156;8.142;2023-02-11T12:56:58;6.70;;;3.10;;
18100;SDS011;9177;49.156;8.142;2023-02-11T12:59:39;6.15;;;2.80;;
18100;SDS011;9177;49.156;8.142;2023-02-11T13:02:15;5.50;;;2.78;;
18100;SDS011;9177;49.156;8.142;2023-02-11T13:04:47;3.33;;;2.55;;
18100;SDS011;9177;49.156;8.142;2023-02-11T13:07:20;4.68;;;2.70;;
18100;SDS011;9177;49.156;8.142;2023-02-11T13:09:53;5.10;;;2.70;;
18100;SDS011;9177;49.156;8.142;2023-02-11T13:12:24;4.90;;;2.70;;
18100;SDS011;9177;49.156;8.142;2023-02-11T13:15:13;4.03;;;2.35;;
18100;SDS011;9177;49.156;8.142;2023-02-11T13:17:43;3.35;;;2.58;;
18100;SDS011;9177;49.156;8.142;2023-02-11T13:20:19;3.28;;;2.47;;
18100;SDS011;9177;49.156;8.142;2023-02-11T13:22:58;4.95;;;2.42;;
18100;SDS011;9177;49.156;8.142;2023-02-11T13:25:31;4.40;;;2.40;;
18100;SDS011;9177;49.156;8.142;2023-02-11T13:28:09;4.70;;;3.00;;
18100;SDS011;9177;49.156;8.142;2023-02-11T13:30:51;11.82;;;3.42;;
18100;SDS011;9177;49.156;8.142;2023-02-11T13:33:30;20.83;;;3.97;;
18100;SDS011;9177;49.156;8.142;2023-02-11T13:36:11;17.25;;;3.97;;
18100;SDS011;9177;49.156;8.142;2023-02-11T13:38:40;7.75;;;2.50;;
18100;SDS011;9177;49.156;8.142;2023-02-11T13:41:27;9.65;;;3.00;;
18100;SDS011;9177;49.156;8.142;2023-02-11T13:44:03;7.97;;;2.80;;
18100;SDS011;9177;49.156;8.142;2023-02-11T13:46:51;8.95;;;2.80;;
18100;SDS011;9177;49.156;8.142;2023-02-11T13:49:22;7.45;;;2.67;;
18100;SDS011;9177;49.156;8.142;2023-02-11T13:51:52;9.52;;;3.20;;
18100;SDS011;9177;49.156;8.142;2023-02-11T13:54:30;8.25;;;3.40;;
18100;SDS011;9177;49.156;8.142;2023-02-11T13:59:56;9.10;;;3.63;;
18100;SDS011;9177;49.156;8.142;2023-02-11T14:02:26;9.73;;;3.43;;
18100;SDS011;9177;49.156;8.142;2023-02-11T14:05:21;8.90;;;3.60;;
18100;SDS011;9177;49.156;8.142;2023-02-11T14:08:18;6.95;;;3.25;;
18100;SDS011;9177;49.156;8.142;2023-02-11T14:11:06;9.60;;;3.35;;
18100;SDS011;9177;49.156;8.142;2023-02-11T14:19:47;8.82;;;2.75;;
18100;SDS011;9177;49.156;8.142;2023-02-11T14:22:16;8.18;;;2.92;;
18100;SDS011;9177;49.156;8.142;2023-02-11T14:24:48;4.80;;;2.58;;
18100;SDS011;9177;49.156;8.142;2023-02-11T14:27:26;5.68;;;2.97;;
18100;SDS011;9177;49.156;8.142;2023-02-11T14:30:06;7.22;;;2.80;;
18100;SDS011;9177;49.156;8.142;2023-02-11T14:33:07;7.38;;;2.85;;
18100;SDS011;9177;49.156;8.142;2023-02-11T14:35:52;5.18;;;2.80;;
18100;SDS011;9177;49.156;8.142;2023-02-11T14:38:32;6.57;;;2.78;;
18100;SDS011;9177;49.156;8.142;2023-02-11T14:41:07;5.25;;;2.67;;
18100;SDS011;9177;49.156;8.142;2023-02-11T14:43:40;9.70;;;2.90;;
18100;SDS011;9177;49.156;8.142;2023-02-11T14:46:11;9.75;;;2.67;;
18100;SDS011;9177;49.156;8.142;2023-02-11T14:48:42;6.93;;;3.00;;
18100;SDS011;9177;49.156;8.142;2023-02-11T14:51:14;5.60;;;2.90;;
18100;SDS011;9177;49.156;8.142;2023-02-11T14:53:48;9.88;;;3.10;;
18100;SDS011;9177;49.156;8.142;2023-02-11T14:56:17;8.13;;;2.63;;
18100;SDS011;9177;49.156;8.142;2023-02-11T14:58:47;7.55;;;3.10;;
18100;SDS011;9177;49.156;8.142;2023-02-11T15:01:23;8.82;;;3.05;;
18100;SDS011;9177;49.156;8.142;2023-02-11T15:03:53;3.97;;;2.55;;
18100;SDS011;9177;49.156;8.142;2023-02-11T15:06:24;7.32;;;3.10;;
18100;SDS011;9177;49.156;8.142;2023-02-11T15:08:54;4.40;;;2.70;;
18100;SDS011;9177;49.156;8.142;2023-02-11T15:11:25;5.10;;;2.40;;
18100;SDS011;9177;49.156;8.142;2023-02-11T15:13:55;6.50;;;2.90;;
18100;SDS011;9177;49.156;8.142;2023-02-11T15:16:24;4.68;;;3.05;;
18100;SDS011;9177;49.156;8.142;2023-02-11T15:18:55;5.38;;;2.97;;
18100;SDS011;9177;49.156;8.142;2023-02-11T15:21:26;6.30;;;3.50;;
18100;SDS011;9177;49.156;8.142;2023-02-11T15:23:59;3.80;;;2.60;;
18100;SDS011;9177;49.156;8.142;2023-02-11T15:26:29;8.90;;;3.20;;
18100;SDS011;9177;49.156;8.142;2023-02-11T15:28:56;5.57;;;3.15;;
18100;SDS011;9177;49.156;8.142;2023-02-11T15:31:24;8.93;;;3.05;;
18100;SDS011;9177;49.156;8.142;2023-02-11T15:33:52;8.15;;;3.00;;
18100;SDS011;9177;49.156;8.142;2023-02-11T15:36:20;10.85;;;3.15;;
18100;SDS011;9177;49.156;8.142;2023-02-11T15:39:18;6.90;;;2.95;;
18100;SDS011;9177;49.156;8.142;2023-02-11T15:41:56;6.97;;;2.85;;
18100;SDS011;9177;49.156;8.142;2023-02-11T15:44:42;6.15;;;2.92;;
18100;SDS011;9177;49.156;8.142;2023-02-11T15:47:09;8.45;;;3.30;;
18100;SDS011;9177;49.156;8.142;2023-02-11T15:49:36;7.07;;;3.10;;
18100;SDS011;9177;49.156;8.142;2023-02-11T15:52:09;9.70;;;3.50;;
18100;SDS011;9177;49.156;8.142;2023-02-11T15:54:39;7.32;;;3.70;;
18100;SDS011;9177;49.156;8.142;2023-02-11T15:57:12;12.32;;;3.60;;
18100;SDS011;9177;49.156;8.142;2023-02-11T15:59:44;6.72;;;3.00;;